CheckWX is a tool to help pilots better visualize weather data.  It is not intended as a substitute for an official pre-flight weather briefing.

09:20:11 UTC

KMHT METAR
Manchester Airport
Manchester, New Hampshire, USA
Current

27 mins ago

KMHT 070853Z 32008KT 10SM CLR M04/M10 A3015 RMK AO2 SLP231 T10441100 51026
Observed
Dec-7 @ 08:53 UTC
Wind
  • 320° at 8 KTS
Visibility
10 SM
Flight Rules
VFR
Cloud Levels
  • Clear skies
Temperature
-4°C / 25°F
Dewpoint
-10°C / 14°F
Humidity
63%
Altimeter
30.15" Hg
Pressure
1021.02 hPa
Previous

1 hour ago

KMHT 070753Z 31008KT 10SM CLR M04/M09 A3013 RMK AO2 SLP223 T10391094
Observed
Dec-7 @ 07:53 UTC
Wind
  • 310° at 8 KTS
Visibility
10 SM
Flight Rules
VFR
Cloud Levels
  • Clear skies
Temperature
-4°C / 25°F
Dewpoint
-9°C / 16°F
Humidity
69%
Altimeter
30.13" Hg
Pressure
1020.32 hPa
Previous

2 hours ago

KMHT 070653Z 31008KT 10SM CLR M03/M08 A3011 RMK AO2 SLP217 T10331083
Observed
Dec-7 @ 06:53 UTC
Wind
  • 310° at 8 KTS
Visibility
10 SM
Flight Rules
VFR
Cloud Levels
  • Clear skies
Temperature
-3°C / 27°F
Dewpoint
-8°C / 18°F
Humidity
69%
Altimeter
30.11" Hg
Pressure
1019.62 hPa